Time;durP1;ratioP1;P1;durP2;ratioP2;P2;SDS_P1;SDS_P2;PMS_P1;PMS_P2;Temp;Humidity;BMP_temperature;BMP_pressure;BME280_temperature;BME280_humidity;BME280_pressure;Samples;Min_cycle;Max_cycle;Signal;HPM_P1;HPM_P2
2022/05/07 00:01:59;;;;;;;4.20;2.30;;;12.40;99.90;;;;;;4959676;28;20019;-77
2022/05/07 00:04:25;;;;;;;6.30;2.60;;;12.40;99.90;;;;;;4937296;28;20043;-77
2022/05/07 00:06:51;;;;;;;4.75;1.85;;;12.40;99.90;;;;;;4940545;29;20376;-81
2022/05/07 00:09:18;;;;;;;5.20;2.10;;;12.40;99.90;;;;;;4940975;29;20020;-77
2022/05/07 00:11:47;;;;;;;6.00;2.22;;;12.40;99.90;;;;;;4940705;29;20031;-76
2022/05/07 00:14:13;;;;;;;5.80;1.98;;;12.40;99.90;;;;;;4940192;29;20034;-77
2022/05/07 00:19:22;;;;;;;;;;;12.40;99.90;;;;;;4940510;29;20241;-77
2022/05/07 00:21:48;;;;;;;7.00;2.85;;;12.40;99.90;;;;;;4940350;29;20381;-80
2022/05/07 00:24:14;;;;;;;6.70;2.80;;;12.30;99.90;;;;;;4939470;29;20027;-76
2022/05/07 00:26:39;;;;;;;5.60;2.90;;;12.30;99.90;;;;;;4940174;29;20023;-83
2022/05/07 00:29:05;;;;;;;7.47;3.25;;;12.30;99.90;;;;;;4939765;29;20030;-76
2022/05/07 00:31:31;;;;;;;7.85;3.53;;;12.40;99.90;;;;;;4940322;29;20706;-77
2022/05/07 00:33:56;;;;;;;4.18;2.75;;;12.30;99.90;;;;;;4940559;29;20054;-80
2022/05/07 00:36:22;;;;;;;4.80;2.45;;;12.30;99.90;;;;;;4939416;29;20024;-77
2022/05/07 00:38:48;;;;;;;7.65;3.47;;;12.30;99.90;;;;;;4940006;29;20699;-78
2022/05/07 00:41:14;;;;;;;7.47;3.55;;;12.30;99.90;;;;;;4939810;29;20042;-75
2022/05/07 00:43:41;;;;;;;6.43;3.45;;;12.30;99.90;;;;;;4941074;29;20162;-76
2022/05/07 00:46:08;;;;;;;10.80;5.28;;;12.30;99.90;;;;;;4942904;29;20019;-78
2022/05/07 00:48:34;;;;;;;8.80;4.50;;;12.30;99.90;;;;;;4945974;29;20031;-76
2022/05/07 00:53:47;;;;;;;12.38;5.57;;;12.20;99.90;;;;;;4947993;29;20042;-76
2022/05/07 00:56:13;;;;;;;9.98;6.15;;;12.20;99.90;;;;;;4944302;29;20023;-85
2022/05/07 00:58:39;;;;;;;12.75;5.97;;;12.20;99.90;;;;;;4950946;29;20122;-86
2022/05/07 01:01:11;;;;;;;11.07;6.53;;;12.20;99.90;;;;;;4946669;28;20114;-80
2022/05/07 01:03:38;;;;;;;15.77;7.78;;;12.20;99.90;;;;;;4947028;29;20023;-84
2022/05/07 01:06:04;;;;;;;13.73;7.53;;;12.20;99.90;;;;;;4946430;28;20676;-85
2022/05/07 01:08:33;;;;;;;11.82;6.10;;;12.20;99.90;;;;;;4946444;29;20542;-79
2022/05/07 01:11:01;;;;;;;10.05;5.95;;;12.20;99.90;;;;;;4953554;29;20039;-85
2022/05/07 01:13:30;;;;;;;15.00;5.75;;;12.20;99.90;;;;;;4951678;29;20130;-79
2022/05/07 01:15:57;;;;;;;8.52;5.25;;;12.20;99.90;;;;;;4951879;29;20035;-80
2022/05/07 01:18:23;;;;;;;13.90;5.70;;;12.20;99.90;;;;;;4952002;29;20086;-80
2022/05/07 01:20:49;;;;;;;12.07;6.03;;;12.20;99.90;;;;;;4950366;29;20020;-80
2022/05/07 01:23:16;;;;;;;9.95;5.00;;;12.20;99.90;;;;;;4951102;29;20216;-85
2022/05/07 01:25:41;;;;;;;10.05;5.28;;;12.20;99.90;;;;;;4951078;29;20011;-81
2022/05/07 01:28:07;;;;;;;11.90;6.35;;;12.30;99.90;;;;;;4950234;29;20518;-87
2022/05/07 01:30:36;;;;;;;10.40;4.90;;;12.20;99.90;;;;;;4949807;29;20012;-88
2022/05/07 01:33:02;;;;;;;12.32;6.00;;;12.30;99.90;;;;;;4959376;29;20103;-80
2022/05/07 01:35:28;;;;;;;9.60;4.20;;;12.30;99.90;;;;;;4957552;29;20228;-88
2022/05/07 01:37:54;;;;;;;9.57;3.90;;;12.30;99.90;;;;;;4963932;29;20051;-86
2022/05/07 01:40:19;;;;;;;9.43;3.83;;;12.30;99.90;;;;;;4967946;29;20514;-77
2022/05/07 01:42:48;;;;;;;8.88;3.50;;;12.20;99.90;;;;;;4953810;29;20657;-88
2022/05/07 01:45:14;;;;;;;7.93;3.58;;;12.20;99.90;;;;;;4958485;29;20425;-80
2022/05/07 03:01:09;;;;;;;12.60;5.38;;;11.90;99.90;;;;;;4908710;23;20079;-78
2022/05/07 03:03:34;;;;;;;11.07;6.28;;;11.90;99.90;;;;;;4902595;29;20050;-79
2022/05/07 03:06:00;;;;;;;12.73;5.03;;;11.80;99.90;;;;;;4886488;29;20056;-78
2022/05/07 03:08:26;;;;;;;10.75;4.88;;;11.90;99.90;;;;;;4902969;29;20099;-78
2022/05/07 03:10:52;;;;;;;17.17;5.25;;;11.90;99.90;;;;;;4927597;29;20570;-78
2022/05/07 03:13:18;;;;;;;8.95;3.95;;;11.90;99.90;;;;;;4927747;29;20027;-78
2022/05/07 03:15:44;;;;;;;9.57;4.45;;;11.90;99.90;;;;;;4929388;29;20024;-77
2022/05/07 03:18:12;;;;;;;8.02;3.50;;;12.00;99.90;;;;;;4933591;29;20577;-78
2022/05/07 03:20:40;;;;;;;6.95;3.50;;;11.90;99.90;;;;;;4922277;29;20036;-77
2022/05/07 03:23:06;;;;;;;7.88;3.72;;;11.90;99.90;;;;;;4918719;29;20266;-78
2022/05/07 03:25:32;;;;;;;9.88;3.97;;;11.90;99.90;;;;;;4916515;29;20041;-78
2022/05/07 03:27:57;;;;;;;9.55;4.55;;;11.90;99.90;;;;;;4917983;29;20744;-76
2022/05/07 03:30:23;;;;;;;9.75;4.57;;;11.90;99.90;;;;;;4930678;29;20016;-77
2022/05/07 03:36:38;;;;;;;8.88;3.55;;;11.90;99.90;;;;;;4899575;29;20025;-77
2022/05/07 03:39:30;;;;;;;9.32;3.72;;;11.90;99.90;;;;;;4856958;29;20053;-77
2022/05/07 03:59:00;;;;;;;12.95;5.50;;;11.90;99.90;;;;;;4861596;29;20066;-77
2022/05/07 04:01:25;;;;;;;10.48;5.07;;;12.00;99.90;;;;;;4825515;29;20037;-78
2022/05/07 04:04:05;;;;;;;7.50;3.70;;;12.00;99.90;;;;;;4845072;29;20128;-78
2022/05/07 04:06:37;;;;;;;11.32;4.97;;;12.00;99.90;;;;;;4878880;29;20048;-78
2022/05/07 04:09:02;;;;;;;12.05;5.40;;;12.00;99.90;;;;;;4878158;29;20027;-78
2022/05/07 04:11:28;;;;;;;9.18;5.15;;;12.00;99.90;;;;;;4919951;29;20100;-78
2022/05/07 04:14:00;;;;;;;11.15;5.70;;;12.00;99.90;;;;;;4920720;29;20064;-77
2022/05/07 04:16:31;;;;;;;10.40;4.75;;;12.00;99.90;;;;;;4914129;29;20028;-78
2022/05/07 04:19:07;;;;;;;9.00;4.97;;;11.90;99.90;;;;;;4916682;29;20036;-78
2022/05/07 04:21:35;;;;;;;10.18;5.18;;;9.40;99.90;;;;;;4913864;29;20017;-77
2022/05/07 04:24:01;;;;;;;10.93;5.75;;;11.80;99.90;;;;;;4897911;29;20063;-78
2022/05/07 04:26:30;;;;;;;10.75;5.00;;;11.80;99.90;;;;;;4912802;29;20031;-77
2022/05/07 04:28:56;;;;;;;10.43;4.78;;;11.80;99.90;;;;;;4896703;29;20036;-77
2022/05/07 04:31:24;;;;;;;10.38;5.75;;;11.80;99.90;;;;;;4899395;29;20036;-77
2022/05/07 04:33:49;;;;;;;10.25;4.47;;;11.80;99.90;;;;;;4915723;29;20076;-78
2022/05/07 04:36:15;;;;;;;13.68;4.90;;;11.80;99.90;;;;;;4900521;29;20691;-78
2022/05/07 04:38:41;;;;;;;12.57;5.57;;;11.80;99.90;;;;;;4921387;29;20028;-78
2022/05/07 04:41:07;;;;;;;9.82;4.18;;;11.80;99.90;;;;;;4919141;29;20024;-78
2022/05/07 04:43:33;;;;;;;15.07;7.80;;;11.70;99.90;;;;;;4922221;29;20019;-77
2022/05/07 04:45:58;;;;;;;20.42;8.50;;;11.70;99.90;;;;;;4917124;29;20035;-78
2022/05/07 04:48:24;;;;;;;17.88;8.27;;;11.80;99.90;;;;;;4916940;29;20028;-78
2022/05/07 04:50:52;;;;;;;17.77;8.73;;;11.80;99.90;;;;;;4918878;29;20020;-79
2022/05/07 04:53:18;;;;;;;13.50;6.40;;;11.80;99.90;;;;;;4900549;29;20128;-77
2022/05/07 04:55:44;;;;;;;12.40;6.43;;;11.40;99.90;;;;;;4899484;29;20024;-78
2022/05/07 04:58:10;;;;;;;10.85;5.40;;;11.90;99.90;;;;;;4917565;29;20052;-79
2022/05/07 05:00:35;;;;;;;11.82;4.50;;;11.90;99.90;;;;;;4895990;29;20127;-77
2022/05/07 05:03:01;;;;;;;11.93;4.80;;;12.00;99.90;;;;;;4910920;29;20044;-78
2022/05/07 05:05:29;;;;;;;13.25;4.85;;;12.00;99.90;;;;;;4910931;29;20024;-80
2022/05/07 05:07:55;;;;;;;9.48;5.35;;;12.10;99.90;;;;;;4894362;29;20104;-79
2022/05/07 05:10:22;;;;;;;11.23;5.03;;;12.10;99.90;;;;;;4909257;29;20084;-78
2022/05/07 05:12:48;;;;;;;9.40;5.50;;;12.20;99.90;;;;;;4892639;29;20092;-79
2022/05/07 05:15:14;;;;;;;9.80;4.60;;;12.20;99.90;;;;;;4905898;29;20032;-79
2022/05/07 05:17:39;;;;;;;10.77;4.68;;;12.20;99.90;;;;;;4905159;29;20619;-82
2022/05/07 05:20:06;;;;;;;9.82;5.60;;;12.30;99.90;;;;;;4904728;29;20104;-81
2022/05/07 05:22:32;;;;;;;10.73;5.07;;;12.30;99.90;;;;;;4887913;29;20032;-86
2022/05/07 05:24:57;;;;;;;13.13;4.53;;;12.30;99.90;;;;;;4887563;29;20047;-79
2022/05/07 05:27:23;;;;;;;12.95;5.88;;;12.40;99.90;;;;;;4904919;29;20075;-80
2022/05/07 05:29:49;;;;;;;13.55;4.85;;;12.40;99.90;;;;;;4904447;29;20547;-78
2022/05/07 05:32:18;;;;;;;12.23;5.60;;;12.50;99.90;;;;;;4904541;29;20051;-78
2022/05/07 05:34:48;;;;;;;16.67;4.95;;;12.50;99.90;;;;;;4906606;29;20060;-79
2022/05/07 05:37:18;;;;;;;9.52;4.68;;;12.60;99.90;;;;;;4904863;29;20083;-86
2022/05/07 05:39:45;;;;;;;10.77;5.07;;;12.60;99.90;;;;;;4904013;29;20559;-78
2022/05/07 05:42:11;;;;;;;10.75;4.95;;;12.70;99.90;;;;;;4903806;29;20032;-84
2022/05/07 05:44:39;;;;;;;10.18;4.82;;;12.70;99.90;;;;;;4903571;29;20024;-88
2022/05/07 05:47:05;;;;;;;9.90;4.38;;;12.80;99.90;;;;;;4903423;29;20020;-92
2022/05/07 05:49:34;;;;;;;10.50;5.07;;;12.90;99.90;;;;;;4887061;29;20091;-79
2022/05/07 05:52:10;;;;;;;8.27;4.38;;;13.00;99.90;;;;;;4886924;29;20031;-90
2022/05/07 05:54:36;;;;;;;10.20;5.03;;;13.00;99.90;;;;;;4886747;29;20132;-79
2022/05/07 05:57:02;;;;;;;10.40;4.03;;;13.00;99.90;;;;;;4886497;29;20138;-80
2022/05/07 05:59:28;;;;;;;12.35;5.32;;;13.10;99.90;;;;;;4903544;29;20032;-79
2022/05/07 06:01:57;;;;;;;10.02;4.10;;;13.20;99.90;;;;;;4887760;29;20040;-79
2022/05/07 06:04:22;;;;;;;12.32;5.53;;;13.10;99.90;;;;;;4904729;29;20035;-91
2022/05/07 06:06:48;;;;;;;14.32;5.60;;;13.20;99.90;;;;;;4904946;29;20032;-79
2022/05/07 06:09:14;;;;;;;13.45;6.25;;;13.20;99.90;;;;;;4904526;29;20040;-90
2022/05/07 06:11:40;;;;;;;9.23;4.65;;;13.30;99.90;;;;;;4904517;29;20020;-90
2022/05/07 06:14:06;;;;;;;10.75;4.82;;;13.30;99.90;;;;;;4887706;29;20666;-92
2022/05/07 06:16:31;;;;;;;10.70;4.80;;;13.40;99.90;;;;;;4903946;29;20086;-81
2022/05/07 06:18:57;;;;;;;12.82;7.25;;;13.50;99.90;;;;;;4903444;29;20044;-82
2022/05/07 06:21:23;;;;;;;13.45;5.63;;;13.50;99.90;;;;;;4903028;29;20025;-82
2022/05/07 06:23:51;;;;;;;12.90;6.03;;;13.60;99.90;;;;;;4886234;29;20028;-93
2022/05/07 06:29:01;;;;;;;11.43;4.88;;;13.70;99.90;;;;;;4904460;29;20074;-90
2022/05/07 06:31:27;;;;;;;11.07;5.15;;;13.70;99.90;;;;;;4904004;29;20052;-93
2022/05/07 06:33:53;;;;;;;12.52;5.75;;;13.80;99.90;;;;;;4888195;29;20597;-79
2022/05/07 06:36:19;;;;;;;12.23;5.25;;;13.80;99.90;;;;;;4905325;29;20062;-78
2022/05/07 06:38:44;;;;;;;9.18;4.88;;;13.90;99.90;;;;;;4887949;29;20039;-83
2022/05/07 06:41:10;;;;;;;10.68;4.88;;;13.90;99.90;;;;;;4905503;29;20578;-86
2022/05/07 06:43:36;;;;;;;15.93;6.13;;;13.90;99.90;;;;;;4903713;29;20027;-81
2022/05/07 06:46:02;;;;;;;9.73;4.55;;;14.00;99.90;;;;;;4888486;29;20038;-81
2022/05/07 06:48:28;;;;;;;9.27;4.97;;;14.00;99.90;;;;;;4900350;29;20337;-76
2022/05/07 06:50:54;;;;;;;9.45;5.68;;;14.00;99.90;;;;;;4905874;29;20959;-82
2022/05/07 06:53:21;;;;;;;9.43;4.40;;;14.00;99.90;;;;;;4905168;29;20020;-77
2022/05/07 06:55:55;;;;;;;12.48;6.00;;;14.00;99.90;;;;;;4886202;29;20033;-78
2022/05/07 06:58:31;;;;;;;10.75;5.13;;;14.10;99.90;;;;;;4885300;29;20112;-78
2022/05/07 07:00:58;;;;;;;13.32;4.65;;;12.10;99.90;;;;;;4902940;29;20020;-80
2022/05/07 07:03:25;;;;;;;11.80;5.60;;;14.20;99.90;;;;;;4886376;29;20492;-77
2022/05/07 07:05:53;;;;;;;15.98;6.68;;;14.20;99.90;;;;;;4889229;29;20036;-84
2022/05/07 07:08:19;;;;;;;10.15;5.07;;;14.30;99.90;;;;;;4888775;29;20760;-84
2022/05/07 07:10:45;;;;;;;9.95;5.57;;;14.30;99.90;;;;;;4904133;29;20028;-80
2022/05/07 07:13:11;;;;;;;12.98;5.85;;;14.10;99.90;;;;;;4886131;29;20527;-78
2022/05/07 07:15:39;;;;;;;8.95;4.38;;;14.10;99.90;;;;;;4903301;29;20027;-90
2022/05/07 07:18:37;;;;;;;11.52;5.82;;;14.80;99.90;;;;;;5008432;23;20060;-90
2022/05/07 07:21:17;;;;;;;12.32;5.97;;;15.50;99.90;;;;;;4829815;29;20046;-91
2022/05/07 07:23:43;;;;;;;13.55;4.18;;;13.20;99.90;;;;;;4830768;29;20030;-88
2022/05/07 07:26:09;;;;;;;11.43;4.45;;;14.50;99.90;;;;;;4847180;29;20204;-85
2022/05/07 07:28:53;;;;;;;10.60;4.47;;;14.60;99.90;;;;;;4827002;29;20037;-78
2022/05/07 07:31:19;;;;;;;8.60;4.60;;;15.00;99.90;;;;;;4819063;29;20125;-80
2022/05/07 07:33:59;;;;;;;8.57;3.65;;;14.90;99.90;;;;;;4817015;29;20067;-91
2022/05/07 07:36:24;;;;;;;12.20;4.72;;;15.10;99.90;;;;;;4831518;29;20054;-81
2022/05/07 07:38:50;;;;;;;8.57;3.92;;;15.10;99.90;;;;;;4836228;29;20104;-92
2022/05/07 07:41:17;;;;;;;11.13;5.22;;;15.20;99.90;;;;;;4835286;29;20831;-88
2022/05/07 07:43:42;;;;;;;10.77;4.97;;;15.20;99.90;;;;;;4831436;29;20053;-83
2022/05/07 07:48:52;;;;;;;10.50;5.13;;;15.40;99.90;;;;;;4825306;29;20112;-85
2022/05/07 07:51:18;;;;;;;9.40;4.20;;;15.40;99.90;;;;;;4825725;29;20037;-85
2022/05/07 07:53:44;;;;;;;10.82;3.75;;;15.50;99.90;;;;;;4825628;29;20049;-78
2022/05/07 07:56:10;;;;;;;12.32;5.35;;;15.50;99.70;;;;;;4831995;29;20042;-90
2022/05/07 07:58:36;;;;;;;9.73;5.40;;;15.50;99.90;;;;;;4891403;29;20055;-91
2022/05/07 08:01:01;;;;;;;11.65;5.43;;;15.60;99.30;;;;;;4902379;29;20024;-84
2022/05/07 08:03:27;;;;;;;9.65;4.18;;;15.60;99.50;;;;;;4901264;29;20124;-90
2022/05/07 08:05:53;;;;;;;11.18;5.35;;;15.70;99.60;;;;;;4901311;29;20039;-84
2022/05/07 08:13:50;;;;;;;12.35;5.07;;;16.10;98.40;;;;;;4904671;29;20092;-77
2022/05/07 08:16:19;;;;;;;9.35;5.60;;;16.10;98.50;;;;;;4904780;29;20058;-83
2022/05/07 08:18:46;;;;;;;9.30;4.50;;;16.10;98.50;;;;;;4904970;29;20048;-73
2022/05/07 08:21:12;;;;;;;12.40;4.22;;;16.20;98.80;;;;;;4905137;29;20016;-77
2022/05/07 08:23:41;;;;;;;11.00;4.68;;;16.40;98.90;;;;;;4881584;29;20028;-74
2022/05/07 08:26:08;;;;;;;12.00;4.70;;;16.40;98.50;;;;;;4867290;29;20025;-86
2022/05/07 08:28:35;;;;;;;9.80;5.00;;;16.70;97.30;;;;;;4867397;29;20116;-73
2022/05/07 08:31:02;;;;;;;10.00;4.68;;;16.80;97.10;;;;;;4867526;29;20070;-77
2022/05/07 08:33:31;;;;;;;12.77;4.65;;;16.90;96.70;;;;;;4867748;29;20112;-80
2022/05/07 08:35:58;;;;;;;12.10;5.55;;;17.00;96.50;;;;;;4878038;29;20028;-75
2022/05/07 08:38:24;;;;;;;10.98;4.75;;;17.10;96.30;;;;;;4886159;29;20559;-78
2022/05/07 08:40:50;;;;;;;11.27;5.13;;;17.20;96.10;;;;;;4869219;29;20028;-79
2022/05/07 08:43:17;;;;;;;9.63;4.68;;;17.30;96.20;;;;;;4885487;29;20028;-77
2022/05/07 08:45:44;;;;;;;11.80;5.05;;;16.60;96.50;;;;;;4885644;29;20037;-82
2022/05/07 08:48:10;;;;;;;10.05;4.80;;;17.50;95.60;;;;;;4885339;29;20024;-81
2022/05/07 08:50:39;;;;;;;11.25;4.47;;;17.60;95.00;;;;;;4885415;29;20025;-75
2022/05/07 08:53:05;;;;;;;12.18;5.80;;;15.70;94.80;;;;;;4885155;29;20116;-76
2022/05/07 08:55:54;;;;;;;13.07;6.50;;;17.60;95.40;;;;;;4885157;29;20552;-84
2022/05/07 08:58:20;;;;;;;11.95;5.55;;;17.40;95.60;;;;;;4885304;29;20079;-78
2022/05/07 09:00:46;;;;;;;10.88;5.60;;;17.40;95.70;;;;;;4884951;29;20021;-75
2022/05/07 09:03:15;;;;;;;9.23;5.05;;;17.20;95.70;;;;;;4885160;29;20025;-79
2022/05/07 09:05:41;;;;;;;10.43;6.32;;;17.30;95.70;;;;;;4885065;29;20013;-77
2022/05/07 09:08:07;;;;;;;12.13;5.05;;;17.30;95.90;;;;;;4867811;29;20060;-82
2022/05/07 09:10:35;;;;;;;9.90;4.88;;;17.30;95.70;;;;;;4884916;29;20016;-78
2022/05/07 09:13:13;;;;;;;10.77;5.10;;;17.30;96.00;;;;;;4884708;29;20013;-80
2022/05/07 09:15:50;;;;;;;14.07;5.65;;;17.30;96.40;;;;;;4884686;29;20131;-78
2022/05/07 09:18:21;;;;;;;11.10;4.78;;;17.10;95.60;;;;;;4884514;29;20063;-81
2022/05/07 09:21:20;;;;;;;11.43;4.82;;;17.20;95.50;;;;;;4884841;29;20028;-83
2022/05/07 09:24:09;;;;;;;7.45;3.72;;;17.10;95.50;;;;;;4884386;29;20253;-80
2022/05/07 09:26:39;;;;;;;10.93;5.05;;;17.00;95.60;;;;;;4789844;29;20094;-79
2022/05/07 09:29:09;;;;;;;10.25;4.88;;;17.10;95.50;;;;;;4789877;29;20043;-84
2022/05/07 09:31:41;;;;;;;9.45;3.95;;;17.20;95.90;;;;;;4789953;29;20039;-82
2022/05/07 09:36:56;;;;;;;7.90;3.42;;;17.30;96.00;;;;;;4789821;29;20050;-82
2022/05/07 09:39:22;;;;;;;8.80;4.60;;;17.30;95.60;;;;;;4789941;29;20043;-84
2022/05/07 09:41:55;;;;;;;8.00;4.18;;;17.20;95.80;;;;;;4773837;29;20403;-83
2022/05/07 09:44:24;;;;;;;10.77;4.20;;;17.10;95.70;;;;;;4774803;29;20098;-84
2022/05/07 09:46:50;;;;;;;7.93;3.63;;;17.20;95.80;;;;;;4791303;29;20038;-82
2022/05/07 09:49:17;;;;;;;9.15;2.60;;;17.50;95.60;;;;;;4794333;29;20038;-82
2022/05/07 09:51:45;;;;;;;8.00;3.92;;;17.60;95.00;;;;;;4790797;29;20134;-85
2022/05/07 09:59:43;;;;;;;8.10;4.00;;;18.00;93.60;;;;;;4790238;29;20410;-77
2022/05/07 10:02:37;;;;;;;7.10;3.33;;;18.10;93.70;;;;;;4789978;29;20107;-80
2022/05/07 10:05:31;;;;;;;9.25;3.45;;;18.00;93.50;;;;;;4885549;29;20025;-79
2022/05/07 10:08:16;;;;;;;8.95;3.72;;;18.30;93.10;;;;;;4884842;29;20028;-77
2022/05/07 10:10:45;;;;;;;6.55;3.00;;;18.20;93.60;;;;;;4885062;29;20088;-76
2022/05/07 10:13:17;;;;;;;7.70;3.30;;;18.30;93.30;;;;;;4885317;29;20021;-79
2022/05/07 10:15:46;;;;;;;9.32;3.25;;;18.40;93.60;;;;;;4884823;29;20025;-77
2022/05/07 10:18:16;;;;;;;9.65;4.57;;;18.60;93.10;;;;;;4884738;29;20512;-79
2022/05/07 10:20:48;;;;;;;11.20;4.10;;;18.40;92.40;;;;;;4867932;29;20060;-80
2022/05/07 10:23:26;;;;;;;9.32;4.43;;;18.30;92.90;;;;;;4884728;29;20028;-77
2022/05/07 10:25:56;;;;;;;11.23;6.57;;;18.20;93.20;;;;;;4884341;29;20045;-76
2022/05/07 10:28:22;;;;;;;12.68;6.00;;;18.40;93.30;;;;;;4884458;29;20028;-75
2022/05/07 10:30:54;;;;;;;11.55;6.65;;;18.50;92.90;;;;;;4884415;29;20032;-75
2022/05/07 10:33:21;;;;;;;13.20;7.40;;;18.20;92.20;;;;;;4884637;29;20477;-77
2022/05/07 10:35:55;;;;;;;11.05;6.60;;;18.30;92.50;;;;;;4884873;29;20684;-77
2022/05/07 10:38:23;;;;;;;9.85;4.90;;;18.20;92.90;;;;;;4884748;29;20095;-77
2022/05/07 10:40:50;;;;;;;8.38;4.28;;;18.30;93.10;;;;;;4884905;29;20036;-74
2022/05/07 10:43:38;;;;;;;9.90;5.07;;;18.40;92.80;;;;;;4884309;29;20752;-76
2022/05/07 10:46:04;;;;;;;10.15;4.95;;;18.60;92.60;;;;;;4884152;29;20111;-77
2022/05/07 10:48:42;;;;;;;9.63;4.30;;;18.50;92.50;;;;;;4884048;29;20107;-80
2022/05/07 10:51:16;;;;;;;13.50;4.18;;;18.70;92.60;;;;;;4884028;29;20028;-79
2022/05/07 10:53:45;;;;;;;8.98;4.72;;;;;;;;;;4883592;29;20087;-77
2022/05/07 10:56:19;;;;;;;11.02;4.90;;;19.00;91.80;;;;;;4866885;29;20520;-76
2022/05/07 10:58:50;;;;;;;9.70;4.70;;;19.20;91.30;;;;;;4884262;29;20528;-78
2022/05/07 11:01:22;;;;;;;8.35;4.22;;;19.70;90.60;;;;;;4896437;29;20021;-78
2022/05/07 11:03:59;;;;;;;9.32;4.15;;;20.00;90.20;;;;;;4895043;29;20040;-79
2022/05/07 11:06:25;;;;;;;11.02;5.20;;;20.20;89.20;;;;;;4895929;29;20021;-78
2022/05/07 11:08:55;;;;;;;11.27;5.72;;;20.30;86.60;;;;;;4885239;29;20200;-77
2022/05/07 11:11:21;;;;;;;7.40;3.88;;;20.40;85.90;;;;;;4884658;29;20028;-79
2022/05/07 11:13:49;;;;;;;8.25;3.83;;;20.40;87.10;;;;;;4884740;29;20543;-78
2022/05/07 11:16:22;;;;;;;11.10;4.70;;;20.60;87.60;;;;;;4874706;29;20032;-91
2022/05/07 11:18:55;;;;;;;8.60;4.70;;;20.80;85.70;;;;;;4883410;29;20139;-78
2022/05/07 11:21:22;;;;;;;8.93;5.35;;;21.20;86.10;;;;;;4886018;29;20024;-77
2022/05/07 11:23:55;;;;;;;9.15;4.30;;;21.40;83.00;;;;;;4885208;29;20032;-83
2022/05/07 11:26:22;;;;;;;10.00;4.70;;;21.50;81.50;;;;;;4884761;29;20188;-83
2022/05/07 11:28:48;;;;;;;10.57;5.22;;;21.50;80.80;;;;;;4883709;29;20032;-77
2022/05/07 11:31:31;;;;;;;12.63;6.28;;;21.80;80.10;;;;;;4883725;29;20483;-81
2022/05/07 11:34:08;;;;;;;12.80;5.35;;;21.70;78.10;;;;;;4884375;29;20524;-83
2022/05/07 11:36:35;;;;;;;13.55;8.00;;;21.70;78.30;;;;;;4884095;29;20037;-77
2022/05/07 11:39:04;;;;;;;16.13;5.68;;;21.40;80.40;;;;;;4866647;29;20044;-76
2022/05/07 11:41:30;;;;;;;9.50;5.15;;;21.30;79.00;;;;;;4864847;29;20508;-82
2022/05/07 11:46:57;;;;;;;9.40;5.32;;;21.40;77.00;;;;;;4864808;29;20647;-77
2022/05/07 11:49:34;;;;;;;11.07;5.97;;;21.70;78.80;;;;;;4864461;29;20025;-77
2022/05/07 11:52:27;;;;;;;11.93;5.85;;;21.90;76.90;;;;;;4864781;29;20029;-78
2022/05/07 11:55:08;;;;;;;21.98;8.90;;;22.10;75.50;;;;;;4864267;29;20193;-81
2022/05/07 11:57:44;;;;;;;12.07;7.20;;;22.70;73.60;;;;;;4864343;29;20025;-76
2022/05/07 12:00:13;;;;;;;11.07;5.47;;;22.90;73.80;;;;;;4864175;29;20029;-77
2022/05/07 12:02:40;;;;;;;12.02;6.05;;;22.90;70.60;;;;;;4864050;29;20017;-78
2022/05/07 12:05:06;;;;;;;8.85;4.50;;;23.10;70.40;;;;;;4865042;29;20703;-78
2022/05/07 12:07:41;;;;;;;8.35;4.28;;;22.90;70.80;;;;;;4864648;29;20104;-77
2022/05/07 12:10:08;;;;;;;8.95;4.78;;;23.10;69.90;;;;;;4846917;29;20121;-80
2022/05/07 12:12:33;;;;;;;11.48;5.75;;;23.50;67.70;;;;;;4864134;29;20481;-75
2022/05/07 12:15:05;;;;;;;11.20;5.90;;;23.70;66.80;;;;;;4863931;29;20093;-82
2022/05/07 12:20:16;;;;;;;8.73;5.00;;;22.80;67.00;;;;;;4865921;29;20093;-75
2022/05/07 12:30:56;;;;;;;12.32;5.95;;;24.10;67.20;;;;;;4863740;29;20127;-78
2022/05/07 12:33:24;;;;;;;8.73;4.63;;;24.60;65.00;;;;;;4865611;29;20108;-84
2022/05/07 12:35:53;;;;;;;10.27;5.20;;;25.00;62.70;;;;;;4867360;29;20033;-80
2022/05/07 12:38:24;;;;;;;8.30;4.50;;;24.40;60.80;;;;;;4849238;29;20376;-79
2022/05/07 13:03:07;;;;;;;11.60;5.78;;;21.90;71.30;;;;;;5041229;23;20061;-78
2022/05/07 13:05:36;;;;;;;12.82;5.47;;;21.30;74.80;;;;;;4864920;29;20125;-83
2022/05/07 13:08:04;;;;;;;14.13;6.28;;;20.90;75.80;;;;;;4867594;29;20128;-76
2022/05/07 13:10:31;;;;;;;15.65;7.63;;;20.40;78.30;;;;;;4884920;29;20026;-77
2022/05/07 13:12:57;;;;;;;17.17;7.38;;;18.40;81.60;;;;;;4884558;29;20695;-80
2022/05/07 13:15:23;;;;;;;13.23;6.80;;;19.70;85.40;;;;;;4884511;29;20309;-77
2022/05/07 13:17:49;;;;;;;13.07;5.70;;;19.50;87.00;;;;;;4867844;29;20604;-81
2022/05/07 13:20:15;;;;;;;15.85;7.20;;;19.40;87.90;;;;;;4884591;29;20084;-82
2022/05/07 13:22:40;;;;;;;12.65;6.43;;;19.10;90.00;;;;;;4885109;29;20020;-79
2022/05/07 13:25:07;;;;;;;11.75;5.72;;;19.00;90.60;;;;;;4884608;29;20371;-76
2022/05/07 13:27:33;;;;;;;13.32;6.93;;;18.70;90.80;;;;;;4867255;29;20040;-78
2022/05/07 13:29:59;;;;;;;16.42;7.60;;;18.50;93.10;;;;;;4867650;29;20039;-79
2022/05/07 13:32:25;;;;;;;14.77;6.68;;;18.30;95.00;;;;;;4884247;29;20029;-83
2022/05/07 13:34:51;;;;;;;14.68;7.53;;;18.10;95.50;;;;;;4884708;29;20028;-81
2022/05/07 13:37:18;;;;;;;14.63;6.50;;;17.80;96.70;;;;;;4884629;29;20020;-76
2022/05/07 13:39:44;;;;;;;12.93;7.40;;;17.50;97.00;;;;;;4884096;29;20037;-80
2022/05/07 13:42:12;;;;;;;20.60;9.48;;;17.40;97.90;;;;;;4884853;29;20099;-79
2022/05/07 13:44:38;;;;;;;16.23;7.88;;;17.30;97.70;;;;;;4867884;29;20040;-76
2022/05/07 13:47:06;;;;;;;16.67;7.68;;;17.20;96.30;;;;;;4884584;29;20036;-78
2022/05/07 13:49:33;;;;;;;17.80;7.45;;;17.10;97.10;;;;;;4887186;29;20021;-77
2022/05/07 13:52:00;;;;;;;13.77;7.00;;;17.10;98.30;;;;;;4886687;29;20104;-81
2022/05/07 13:54:26;;;;;;;12.38;5.85;;;17.10;98.00;;;;;;4872918;29;20020;-82
2022/05/07 13:56:52;;;;;;;10.80;5.88;;;17.10;97.60;;;;;;4870134;29;20032;-80
2022/05/07 13:59:18;;;;;;;16.35;7.40;;;17.10;97.70;;;;;;4885732;29;20091;-78
2022/05/07 14:01:44;;;;;;;12.98;6.30;;;17.00;97.60;;;;;;4873376;29;20092;-88
2022/05/07 14:04:10;;;;;;;11.90;5.43;;;17.00;97.50;;;;;;4894821;29;20055;-82
2022/05/07 14:06:36;;;;;;;12.95;6.10;;;17.00;97.50;;;;;;4905560;29;20024;-81
2022/05/07 14:09:02;;;;;;;12.07;6.00;;;16.40;97.50;;;;;;4908898;29;20106;-77
2022/05/07 14:11:28;;;;;;;10.13;5.30;;;17.00;97.70;;;;;;4893179;29;20068;-81
2022/05/07 14:13:53;;;;;;;11.82;5.43;;;17.00;97.50;;;;;;4911447;29;20678;-82
2022/05/07 14:16:19;;;;;;;15.40;7.30;;;17.00;97.60;;;;;;4908764;29;20548;-77
2022/05/07 14:18:45;;;;;;;14.35;8.43;;;17.00;98.70;;;;;;4918224;29;20036;-82
2022/05/07 14:21:14;;;;;;;12.57;6.03;;;16.90;99.30;;;;;;4884218;29;20043;-81
2022/05/07 14:23:40;;;;;;;9.40;4.35;;;16.90;99.20;;;;;;4905722;29;20027;-74
2022/05/07 14:26:06;;;;;;;9.52;4.75;;;16.10;98.40;;;;;;4904312;29;20044;-77
2022/05/07 14:28:32;;;;;;;6.40;3.03;;;16.70;98.00;;;;;;4903415;29;20224;-83
2022/05/07 14:30:58;;;;;;;7.15;3.55;;;16.60;98.40;;;;;;4903226;29;20220;-78
2022/05/07 14:33:24;;;;;;;8.32;3.60;;;16.60;98.80;;;;;;4904414;29;20036;-81
2022/05/07 14:35:51;;;;;;;10.27;4.50;;;16.60;99.30;;;;;;4904306;29;20025;-86
2022/05/07 14:38:18;;;;;;;11.15;4.80;;;16.40;99.90;;;;;;4888036;29;20507;-75
2022/05/07 14:40:43;;;;;;;8.07;3.97;;;16.30;99.90;;;;;;4904314;29;20031;-79
2022/05/07 14:43:09;;;;;;;8.48;3.60;;;16.20;99.90;;;;;;4887737;29;20044;-83
2022/05/07 14:45:35;;;;;;;10.15;4.53;;;16.30;99.90;;;;;;4905355;29;20096;-86
2022/05/07 14:48:01;;;;;;;13.25;6.07;;;16.40;99.90;;;;;;4904712;29;20028;-86
2022/05/07 14:50:27;;;;;;;13.05;7.38;;;16.40;99.90;;;;;;4904540;29;20032;-88
2022/05/07 14:52:55;;;;;;;11.32;5.43;;;16.40;99.90;;;;;;4904129;29;20032;-86
2022/05/07 14:55:21;;;;;;;10.80;5.70;;;16.50;99.90;;;;;;4904552;29;20083;-82
2022/05/07 14:57:47;;;;;;;12.43;6.03;;;16.50;99.90;;;;;;4887070;29;20041;-87
2022/05/07 15:00:14;;;;;;;8.73;3.65;;;16.50;99.90;;;;;;4904298;29;20090;-82
2022/05/07 15:02:42;;;;;;;10.00;4.80;;;16.70;99.90;;;;;;4905700;29;20131;-73
2022/05/07 15:05:13;;;;;;;11.63;4.60;;;16.80;99.90;;;;;;4903512;29;20432;-76
2022/05/07 15:07:38;;;;;;;8.73;4.40;;;17.20;99.90;;;;;;4885504;29;20032;-73
2022/05/07 15:49:08;;;;;;;13.25;5.45;;;17.10;99.90;;;;;;5366920;23;20771;-76
2022/05/07 15:51:39;;;;;;;8.27;4.40;;;16.90;99.90;;;;;;4901321;29;20055;-73
2022/05/07 15:54:05;;;;;;;8.85;5.07;;;16.90;99.90;;;;;;4885013;29;20024;-82
2022/05/07 15:56:30;;;;;;;10.00;4.63;;;16.80;99.90;;;;;;4903298;29;20060;-81
2022/05/07 15:58:56;;;;;;;8.35;4.50;;;16.70;99.90;;;;;;4902083;29;20677;-83
2022/05/07 16:01:22;;;;;;;8.40;4.07;;;16.60;99.90;;;;;;4902091;29;20020;-85